空港情報

日本の空港の気象及び、管制情報です。
気象情報はより詳細な情報が取得できる「AVIATION WEATER CENTER」 から取得しているため、VATSIMの気象情報と若干のタイムラグが生じることがあります。

VRCのフィールド設定用空港一覧はこちらをご覧ください。

RJCG Sapporo Control

RJCW / Wakkanai

NO RADAR

RADIO

08/26 2200x45

民間 civil

過去5時間に発表されたMETARがありません。

RJER / Rishiri

NO RADAR

REMOTE

25/07 1800x45

民間 civil

過去5時間に発表されたMETARがありません。

RJEB / Monbetsu

NO RADAR

REMOTE

32/14 2000x45

民間 civil

過去5時間に発表されたMETARがありません。

RJCM / Memanbetsu
VMC

NO RADAR

TOWER

36/18 2500x45

民間 civil

9999

000@1KT

29.73

RJCM 231100Z VRB01KT 9999 FEW020 SCT/// 16/15 Q1007

RJEC / Asahikawa
VMC

NO RADAR

TOWER

34/16 2500x60

民間 civil

9999

310@4KT

29.70

RJEC 231100Z 31004KT 9999 FEW020 SCT100 18/16 Q1006

RJCN / Nakashibetsu

NO RADAR

RADIO

08/26 2000x45

民間 civil

過去5時間に発表されたMETARがありません。

RJCK / Kushiro
VMC

NO RADAR

TOWER

17/35 2500x45

民間 civil

9999

240@3KT

29.73

RJCK 231100Z 24003KT 9999 FEW030 SCT/// 16/14 Q1007

RJCO / Sapporo

RJCO_APP

TOWER

14/32 1500x30

共用 dual

過去5時間に発表されたMETARがありません。

RJCJ / Chitose

RJCC_APP

TOWER

36R/18L 3000x60
36L/18R 2700x45

自衛隊 military

過去5時間に発表されたMETARがありません。

RJCC / NewChitose
VMC

RJCC_APP

TOWER

01L/19R 3000x60
01R/19L 3000x60

民間 civil

9999

000@1KT

29.73

RJCC 231500Z VRB01KT 9999 FEW008 BKN090 16/15 Q1007 RMK 1ST008 6AC090 A2976

RJCB / Obihiro
VMC

NO RADAR

TOWER

35/17 2500x45

民間 civil

9999

140@4KT

29.73

RJCB 231100Z 14004KT 9999 FEW020 BKN040 18/14 Q1007

RJEO / Okushiri

NO RADAR

REMOTE

12/30 1500x45

民間 civil

過去5時間に発表されたMETARがありません。

RJCH / Hakodate
VMC

RJCH_APP

TOWER

12/30 3000x45

民間 civil

9999

000@2KT

29.73

RJCH 231100Z VRB02KT 9999 FEW020 BKN050 20/17 Q1007

RJSA / Aomori
VMC

NO RADAR

TOWER

24/06 3000x60

民間 civil

5000

010@2KT

29.73

RJSA 231200Z 01002KT 5000 BCFG BR FEW001 SCT010 BKN020 19/19 Q1007

RJSO / Ominato

RJSM_APP

TOWER

04/22 600x45

自衛隊 military

過去5時間に発表されたMETARがありません。

RJSM / Misawa

RJSM_APP

TOWER

10/28 3050x45

共用 dual

過去5時間に発表されたMETARがありません。

RJSH / Hachinohe

RJSM_APP

TOWER

25/07 2250x45

自衛隊 military

過去5時間に発表されたMETARがありません。

RJSK / Akita
VMC

NO RADAR

TOWER

10/28 2500x60

民間 civil

8000

000@2KT

29.73

RJSK 231200Z VRB02KT 8000 FEW010 BKN020 BKN060 23/21 Q1007

RJSI / Hanamaki

NO RADAR

RADIO

20/02 2500x45

民間 civil

過去5時間に発表されたMETARがありません。

RJSR / Odate-Noshiro

NO RADAR

REMOTE

11/29 2000x45

民間 civil

過去5時間に発表されたMETARがありません。

RJTG Tokyo Control

RJSY / Shonai
VMC

NO RADAR

RADIO

09/27 2000x45

民間 civil

9999

250@4KT

29.73

RJSY 231200Z 25004KT 220V290 9999 FEW010 SCT015 BKN030 26/23 Q1007

RJSC / Yamagata

NO RADAR

RADIO

01/19 2000x45

民間 civil

過去5時間に発表されたMETARがありません。

RJST / Matsushima

RJSS_APP

TOWER

07/25 2071x46
15/33 1500x46

自衛隊 military

過去5時間に発表されたMETARがありません。

RJSS / Sendai
IMC

RJSS_APP

TOWER

27/09 3000x45
12/30 1200x45

民間 civil

9999

130@6KT

29.73

RJSS 231200Z 13006KT 9999 FEW008 BKN009 22/22 Q1007

RJSD / Sado

NO RADAR

REMOTE

10/28 890x25

民間 civil

過去5時間に発表されたMETARがありません。

RJSN / Niigata
VMC

RJSN_APP

TOWER

10/28 2500x45
04/22 1314x45

民間 civil

9999

100@4KT

29.73

RJSN 231200Z 10004KT 9999 FEW015 SCT030 28/26 Q1007

RJSF / Fukushima
VMC

NO RADAR

RADIO

01/19 2500x60

民間 civil

9999

350@7KT

29.76

RJSF 231100Z 35007KT CAVOK 26/23 Q1008

RJAH / Ibaraki/Hyakuri
IMC

RJAH_APP

TOWER

03L/21R 2700x45
03R/21L 2700x45

共用 dual

5000

050@6KT

29.73

RJAH 231500Z 05006KT 5000 -SHRA BR FEW004 BKN006 BKN030 24/24 Q1007

RJTT / Tokyo
VMC

RJTT_APP

TOWER

34LR/16RL 3000x60
04/22&05/23 2500x60

民間 civil

9999

110@5KT

29.70

RJTT 231500Z 11005KT 9999 FEW025 BKN160 29/26 Q1006 NOSIG RMK 1CU025 6AC160 A2971

RJAA / Narita
IMC

RJTT_APP

TOWER

34L/16R 4000x60
34R/16L 2500x60

民間 civil

4500

040@6KT

29.73

RJAA 231500Z 04006KT 4500 BR FEW003 BKN005 26/25 Q1007 TEMPO 3000 BR RMK 1ST003 7ST005 A2974

RJTL / Shimofusa
IMC

RJTT_APP

TOWER

19/01 2250x45

自衛隊 military

9999

060@8KT

29.70

RJTL 231443Z 06008KT 9999 BKN007 BKN150 26/25 Q1006 RMK 5ST007 7AC150 A2973

RJTE / Tateyama

RJTT_APP

TOWER

09/27 300x45

自衛隊 military

過去5時間に発表されたMETARがありません。

RJTO / Oshima

NO RADAR

RADIO

03/21 1800x45

民間 civil

過去5時間に発表されたMETARがありません。

RJTK / Kisarazu

NO RADAR

TOWER

02/20 1830x45

自衛隊 military

過去5時間に発表されたMETARがありません。

RJAN / Niijima

NO RADAR

REMOTE

11/29 800x25

自衛隊 military

過去5時間に発表されたMETARがありません。

RJAZ / Kozushima

NO RADAR

REMOTE

11/29 800x25

民間 civil

過去5時間に発表されたMETARがありません。

RJTH / Hachijojima

NO RADAR

RADIO

26/08 2000x45

民間 civil

過去5時間に発表されたMETARがありません。

RJTF / Chofu

NO RADAR

Flight Service

35/17 800x30

民間 civil

過去5時間に発表されたMETARがありません。

RJTQ / Miyake

NO RADAR

REMOTE

02/20 1200x30

民間 civil

過去5時間に発表されたMETARがありません。

RJTC / Tachikawa

NO RADAR

TOWER

01/19 900x45

自衛隊 military

過去5時間に発表されたMETARがありません。

RJTA / Atsugi

NO RADAR

TOWER

01/19 2438x45

自衛隊 military

過去5時間に発表されたMETARがありません。

RJTU / Utsunomiya

RJTY_APP

TOWER

01/19 1700x45

自衛隊 military

過去5時間に発表されたMETARがありません。

RJTJ / Iruma

RJTY_APP

TOWER

17/35 2000x45

自衛隊 military

過去5時間に発表されたMETARがありません。

RJTY / Yokota
VMC

RJTY_APP

TOWER

18/36 3353x60

自衛隊 military

9999

260@4KT

29.77

RJTY 231456Z AUTO 26004KT 10SM FEW160 29/22 A2977 RMK AO2 SLP073 T02870222 403920277 50004 FZRANO $

RJAF / Matsumoto

NO RADAR

RADIO

18/36 2000x45

民間 civil

過去5時間に発表されたMETARがありません。

RJNS / Shizuoka
VMC

NO RADAR

RADIO

30/12 2500x60

民間 civil

9999

100@3KT

29.70

RJNS 231200Z 10003KT 9999 FEW025 SCT/// 29/25 Q1006

RJNY / Yaizu-Shizuhama

NO RADAR

TOWER

27/09 1500x45

自衛隊 military

過去5時間に発表されたMETARがありません。

RJNH / Hamamatsu

RJNH_APP

TOWER

09/27 2550x60

自衛隊 military

過去5時間に発表されたMETARがありません。

RJGG / Chubu
VMC

RJGG_APP

TOWER

36/18 3500x60

民間 civil

9999

320@15KT

29.70

RJGG 231500Z 32015KT 9999 FEW030 28/23 Q1006 NOSIG

RJNA / Nagoya

RJGG_APP

TOWER

34/16 2740x45

民間 civil

過去5時間に発表されたMETARがありません。

RJNG / Gifu

RJGG_APP

TOWER

28/10 2710x46

自衛隊 military

過去5時間に発表されたMETARがありません。

RJOE / Akeno

RJOE_APP

TOWER

13/31 500x30
04/22 500x30

自衛隊 military

過去5時間に発表されたMETARがありません。

RJNK / Komatsu
VMC

RJNK_APP

TOWER

06/24 2700x45

共用 dual

9999

200@7KT

29.73

RJNK 231500Z 20007KT 9999 FEW010 SCT015 26/22 Q1007

RJNW / Noto

NO RADAR

RADIO

25/07 2000x45

民間 civil

過去5時間に発表されたMETARがありません。

RJNT / Toyama
VMC

NO RADAR

TOWER

20/02 2000x45

民間 civil

9999

000@2KT

29.73

RJNT 231200Z VRB02KT 9999 FEW030 29/23 Q1007

RJNF / Fukui

NO RADAR

REMOTE

18/36 1200x30

民間 civil

過去5時間に発表されたMETARがありません。

RJBD / Nanki-Shirahama

NO RADAR

RADIO

15/33 2000x45

民間 civil

過去5時間に発表されたMETARがありません。

RJOY / Yao

RJBB_APP

TOWER

27/09 1490x45
13/31 1200x30

民間 civil

過去5時間に発表されたMETARがありません。

RJOO / Osaka
VMC

RJBB_APP

TOWER

32L/14R 3000x60
32R/14L 1830x45

民間 civil

9999

020@6KT

29.70

RJOO 231100Z 02006KT 340V040 9999 FEW030 33/20 Q1006 RMK 1CU030 A2973

RJOB / Okayama
VMC

RJBB_APP

TOWER

07/25 3000x45

民間 civil

9999

000@2KT

29.79

RJOB 231200Z VRB02KT 9999 FEW020 SCT/// 30/24 Q1009

RJBB / Kansai
VMC

RJBB_APP

TOWER

06R/24L 3500x60
06L/24R 4000x60

民間 civil

9999

070@7KT

29.73

RJBB 231500Z AUTO 07007KT 9999 FEW043 BKN150 29/24 Q1007 NOSIG

RJBE / Kobe
VMC

RJBB_APP

TOWER

09/27 2500x60

民間 civil

9999

360@7KT

29.73

RJBE 231200Z 36007KT 9999 FEW035 SCT050 33/24 Q1007

RJBT / Tajima

NO RADAR

REMOTE

01/19 1200x30

民間 civil

過去5時間に発表されたMETARがありません。

RJOR / Tottori
VMC

NO RADAR

RADIO

10/28 2000x45

民間 civil

9999

220@4KT

29.76

RJOR 231200Z 22004KT 9999 FEW030 SCT/// 29/23 Q1008

RJNO / Oki

NO RADAR

REMOTE

07/25 2000x45

民間 civil

過去5時間に発表されたMETARがありません。

RJOH / Miho
VMC

RJOH_APP

TOWER

25/07 2500x45

共用 dual

9999

210@5KT

29.79

RJOH 231500Z 21005KT 9999 FEW030 BKN/// 27/23 Q1009

RJOC / Izumo
VMC

RJOH_APP

RADIO

07/25 2000x45

共用 dual

9999

250@7KT

29.76

RJOC 231100Z 25007KT 9999 FEW030 SCT/// 29/24 Q1008

RJDG Fukuoka Control

RJOT / Takamatsu
VMC

RJBB_APP

TOWER

26/08 2500x60

民間 civil

9999

220@5KT

29.76

RJOT 231200Z 22005KT 9999 FEW025 29/24 Q1008

RJOK / Kochi
VMC

RJBB_APP

TOWER

32/14 2500x45

民間 civil

9999

000@2KT

29.73

RJOK 231100Z VRB02KT 9999 FEW010 SCT/// 29/26 Q1007

RJOS / Tokushima

RJOS_APP

TOWER

29/11 2500x45

共用 dual

過去5時間に発表されたMETARがありません。

RJOA / Hiroshima
VMC

RJOA_APP

TOWER

10/28 3000x60

民間 civil

9999

310@4KT

29.82

RJOA 231300Z 31004KT CAVOK 28/23 Q1010

RJBH / Hiroshimanishi

NO RADAR

Flight Service

04/22 1800x45

民間 civil

過去5時間に発表されたMETARがありません。

RJOI / Iwakuni
VMC

RJOI_APP

TOWER

02/20 2440x60

共用 dual

9999

290@4KT

29.77

RJOI 231455Z 29004KT 9999 FEW030 29/24 A2977 RMK SLP082 T02940244 403440278 51003

RJOM / Matsuyama
VMC

RJOI_APP

TOWER

14/32 2500x45

民間 civil

9999

200@3KT

29.76

RJOM 231200Z 20003KT 140V220 9999 FEW030 SCT/// 29/26 Q1008

RJOZ / Ozuki

RJFZ_APP

TOWER

35/17 1201x61
12/30 899x46

自衛隊 military

過去5時間に発表されたMETARがありません。

RJOF / Hofu

RJFZ_APP

TOWER

30/12 1180x60
01/19 1480x45

自衛隊 military

過去5時間に発表されたMETARがありません。

RJDC / Yamaguchi-Ube
VMC

RJFZ_APP

RADIO

07/25 2500x45

民間 civil

9999

270@6KT

29.76

RJDC 231200Z 27006KT CAVOK 30/26 Q1008

RJFR / Kitakyushu
VMC

RJFZ_APP

TOWER

18/36 2500x60

民間 civil

9999

340@7KT

29.76

RJFR 231500Z 34007KT 9999 FEW030 28/24 Q1008

RJFZ / Tsuiki

RJFZ_APP

TOWER

25/07 2399x46

自衛隊 military

過去5時間に発表されたMETARがありません。

RJOW / Iwami

NO RADAR

REMOTE

11/29 2000x45

民間 civil

過去5時間に発表されたMETARがありません。

RJDT / Tsushima
VMC

NO RADAR

REMOTE

32/14 1900x45

民間 civil

9999

290@4KT

29.76

RJDT 231100Z 29004KT 260V320 9999 FEW020 SCT/// 29/25 Q1008

RJFF / Fukuoka
VMC

RJFF_APP

TOWER

16/34 2800x60

民間 civil

9999

070@3KT

29.79

RJFF 231500Z AUTO 07003KT 9999 BKN033 29/24 Q1009 RMK A2980

RJFS / Saga
VMC

RJFF_APP

RADIO

29/11 2000x45

民間 civil

9999

000@1KT

29.76

RJFS 231200Z VRB01KT 9999 FEW030 SCT040 BKN050 30/25 Q1008

RJFA / Ashiya

RJFF_APP

TOWER

12/30 1640x46

自衛隊 military

過去5時間に発表されたMETARがありません。

RJDB / Iki

RJFF_APP

REMOTE

20/02 1200x30

民間 civil

過去5時間に発表されたMETARがありません。

RJFO / Oita
VMC

RJFO_APP

TOWER

01/19 3000x45

民間 civil

9999

190@4KT

29.76

RJFO 231300Z 19004KT CAVOK 28/26 Q1008

RJFU / Nagasaki
VMC

RJFU_APP

TOWER

32/14 3000x60

民間 civil

9999

250@7KT

29.76

RJFU 231200Z 25007KT 9999 FEW025 SCT040 BKN/// 29/25 Q1008

RJDU / Omura

RJFU_APP

TOWER

18/36 1200x30

自衛隊 military

過去5時間に発表されたMETARがありません。

RJFE / Fukue

NO RADAR

RADIO

03/21 2000x45

民間 civil

過去5時間に発表されたMETARがありません。

RJDO / Ojika

NO RADAR

REMOTE

03/21 800x30

民間 civil

過去5時間に発表されたMETARがありません。

RJDK / Kamigoto

NO RADAR

REMOTE

17/35 800x30

民間 civil

過去5時間に発表されたMETARがありません。

RJDA / Amakusa

NO RADAR

Flight Service

31/13 1000x30

民間 civil

過去5時間に発表されたMETARがありません。

RJFT / Kumamoto
VMC

RJFT_APP

TOWER

07/25 3000x45

民間 civil

9999

200@7KT

29.82

RJFT 231200Z 20007KT 9999 FEW020 SCT025 BKN035 28/27 Q1010

RJFN / Nyutabaru

RJFM_APP

TOWER

28/10 2701x46

自衛隊 military

過去5時間に発表されたMETARがありません。

RJFM / Miyazaki
VMC

RJFM_APP

TOWER

27/09 2500x45

民間 civil

9999

280@6KT

29.76

RJFM 231200Z 28006KT 9999 FEW030 SCT040 30/26 Q1008

RJFK / Kagoshima
VMC

RJFK_APP

TOWER

34/16 3000x45

民間 civil

9999

280@3KT

29.85

RJFK 231200Z 28003KT 250V310 9999 FEW020 BKN035 27/23 Q1011 RMK 1CU020 5CU035 A2986

RJFY / Kanoya

RJFY_APP

TOWER

26L/08R 2250x45
26R/08L 1200x40

自衛隊 military

過去5時間に発表されたMETARがありません。

RJFG / Tanegashima

NO RADAR

RADIO

31/13 2000x45

民間 civil

過去5時間に発表されたMETARがありません。

RJFC / Yakushima

NO RADAR

REMOTE

14/32 1500x45

民間 civil

過去5時間に発表されたMETARがありません。

RORG Naha Control

ROAH / Naha
VMC

ROAH_APP

TOWER

36/18 3000x45

共用 dual

9999

160@8KT

29.76

ROAH 231500Z 16008KT 9999 VCSH SCT010 28/26 Q1008 RMK 3CU010 A2978

RORA / Aguni

ROAH_APP

REMOTE

01/19 800x25

民間 civil

過去5時間に発表されたMETARがありません。

ROKJ / Kumejima

ROAH_APP

REMOTE

03/21 2000x45

民間 civil

過去5時間に発表されたMETARがありません。

RODN / Kadena
VMC

ROAH_APP

TOWER

05L/23R 3688x91
05R/23L 3688x61

自衛隊 military

9999

140@6KT

29.80

RODN 231456Z AUTO 14006KT 10SM FEW010 SCT016 SCT021 BKN034 28/26 A2980 RMK AO2 SLP096 T02800260 403100277 52009

ROTM / Futenma
VMC

ROAH_APP

TOWER

06/24 2740x45

自衛隊 military

9999

150@7KT

29.81

ROTM 231503Z 15007KT 8SM BKN010 BKN018 BKN028 28/26 A2981 RMK AO2 T02780261

RORS / Shimojishima

RORS_APP

TOWER

17/35 3000x60

民間 civil

過去5時間に発表されたMETARがありません。

ROMY / Miyako
VMC

RORS_APP

TOWER

04/22 2000x45

民間 civil

9999

160@5KT

29.68

ROMY 231100Z 16005KT 9999 FEW007 BKN/// 27/26 Q1005

ROIG / New Ishigaki
VMC

RORS_APP

TOWER

22/04 2000x45

民間 civil

9999

170@6KT

29.65

ROIG 231100Z 17006KT 9999 SCT008 BKN012 BKN/// 28/27 Q1004

RORT / Tarama

RORS_APP

REMOTE

36/18 1500x45

民間 civil

過去5時間に発表されたMETARがありません。

RJKA / Amami

NO RADAR

RADIO

03/21 2000x45

民間 civil

過去5時間に発表されたMETARがありません。

RJKI / Kikai

NO RADAR

REMOTE

07/25 1200x30

民間 civil

過去5時間に発表されたMETARがありません。

RJKN / Tokunoshima

NO RADAR

REMOTE

19/01 2000x45

民間 civil

過去5時間に発表されたMETARがありません。

RJKB / Okierabu

NO RADAR

REMOTE

04/22 1350x45

民間 civil

過去5時間に発表されたMETARがありません。

RORY / Yoron
VMC

NO RADAR

REMOTE

32/14 1320x30

民間 civil

9999

150@7KT

29.76

RORY 231500Z AUTO 15007KT 9999 NCD 27/26 Q1008

RORK / Kitadaito

NO RADAR

REMOTE

03/21 1500x45

民間 civil

過去5時間に発表されたMETARがありません。

ROMD / Minami-daito

NO RADAR

REMOTE

02/20 1500x45

民間 civil

過去5時間に発表されたMETARがありません。

ROYN / Yonaguni
VMC

NO RADAR

REMOTE

26/08 2000x45

民間 civil

9999

150@7KT

29.70

ROYN 231500Z AUTO 15007KT 9999 SCT011 BKN013 BKN029 29/27 Q1006

RORH / Hateruma

NO RADAR

REMOTE

02/20 800x25

民間 civil

過去5時間に発表されたMETARがありません。

ROKR / Kerama

NO RADAR

REMOTE

02/20 800x25

民間 civil

過去5時間に発表されたMETARがありません。